sensor_id;sensor_type;location;lat;lon;timestamp;P1;durP1;ratioP1;P2;durP2;ratioP2
35990;SDS011;22064;42.672;23.282;2023-06-10T00:01:48;15.88;;;7.82;;
35990;SDS011;22064;42.672;23.282;2023-06-10T00:04:15;15.48;;;8.00;;
35990;SDS011;22064;42.672;23.282;2023-06-10T00:06:43;16.98;;;8.68;;
35990;SDS011;22064;42.672;23.282;2023-06-10T00:09:09;16.30;;;8.40;;
35990;SDS011;22064;42.672;23.282;2023-06-10T00:11:39;15.15;;;7.82;;
35990;SDS011;22064;42.672;23.282;2023-06-10T00:14:06;15.88;;;8.45;;
35990;SDS011;22064;42.672;23.282;2023-06-10T00:16:32;14.55;;;8.10;;
35990;SDS011;22064;42.672;23.282;2023-06-10T00:19:02;15.23;;;7.50;;
35990;SDS011;22064;42.672;23.282;2023-06-10T00:21:29;13.60;;;7.35;;
35990;SDS011;22064;42.672;23.282;2023-06-10T00:24:05;12.57;;;6.55;;
35990;SDS011;22064;42.672;23.282;2023-06-10T00:26:32;17.38;;;8.05;;
35990;SDS011;22064;42.672;23.282;2023-06-10T00:28:59;17.83;;;8.45;;
35990;SDS011;22064;42.672;23.282;2023-06-10T00:31:27;15.88;;;8.20;;
35990;SDS011;22064;42.672;23.282;2023-06-10T00:33:52;14.07;;;7.85;;
35990;SDS011;22064;42.672;23.282;2023-06-10T00:36:19;15.98;;;8.40;;
35990;SDS011;22064;42.672;23.282;2023-06-10T00:38:45;15.27;;;8.43;;
35990;SDS011;22064;42.672;23.282;2023-06-10T00:41:11;18.35;;;8.13;;
35990;SDS011;22064;42.672;23.282;2023-06-10T00:43:37;19.08;;;9.40;;
35990;SDS011;22064;42.672;23.282;2023-06-10T00:46:02;17.20;;;8.88;;
35990;SDS011;22064;42.672;23.282;2023-06-10T00:48:29;16.38;;;8.73;;
35990;SDS011;22064;42.672;23.282;2023-06-10T00:50:56;17.58;;;9.55;;
35990;SDS011;22064;42.672;23.282;2023-06-10T00:53:23;17.63;;;9.50;;
35990;SDS011;22064;42.672;23.282;2023-06-10T00:55:50;18.98;;;10.15;;
35990;SDS011;22064;42.672;23.282;2023-06-10T00:58:16;17.60;;;9.90;;
35990;SDS011;22064;42.672;23.282;2023-06-10T01:00:42;18.90;;;9.77;;
35990;SDS011;22064;42.672;23.282;2023-06-10T01:03:10;20.13;;;10.50;;
35990;SDS011;22064;42.672;23.282;2023-06-10T01:05:37;17.70;;;9.48;;
35990;SDS011;22064;42.672;23.282;2023-06-10T01:08:09;19.02;;;9.73;;
35990;SDS011;22064;42.672;23.282;2023-06-10T01:10:59;18.92;;;9.73;;
35990;SDS011;22064;42.672;23.282;2023-06-10T01:13:27;15.93;;;8.60;;
35990;SDS011;22064;42.672;23.282;2023-06-10T01:15:56;18.83;;;8.90;;
35990;SDS011;22064;42.672;23.282;2023-06-10T01:18:23;16.83;;;8.48;;
35990;SDS011;22064;42.672;23.282;2023-06-10T01:20:49;16.08;;;8.20;;
35990;SDS011;22064;42.672;23.282;2023-06-10T01:23:15;18.58;;;8.60;;
35990;SDS011;22064;42.672;23.282;2023-06-10T01:25:45;15.25;;;8.02;;
35990;SDS011;22064;42.672;23.282;2023-06-10T01:33:22;16.52;;;8.07;;
35990;SDS011;22064;42.672;23.282;2023-06-10T01:35:56;17.30;;;8.50;;
35990;SDS011;22064;42.672;23.282;2023-06-10T01:38:24;14.48;;;8.13;;
35990;SDS011;22064;42.672;23.282;2023-06-10T01:40:52;16.10;;;7.70;;
35990;SDS011;22064;42.672;23.282;2023-06-10T01:43:20;17.67;;;7.93;;
35990;SDS011;22064;42.672;23.282;2023-06-10T01:45:47;15.40;;;7.50;;
35990;SDS011;22064;42.672;23.282;2023-06-10T01:48:13;15.18;;;7.60;;
35990;SDS011;22064;42.672;23.282;2023-06-10T01:50:39;16.27;;;7.55;;
35990;SDS011;22064;42.672;23.282;2023-06-10T01:53:05;15.02;;;7.32;;
35990;SDS011;22064;42.672;23.282;2023-06-10T01:55:31;14.38;;;7.35;;
35990;SDS011;22064;42.672;23.282;2023-06-10T01:57:57;15.73;;;7.60;;
35990;SDS011;22064;42.672;23.282;2023-06-10T02:00:23;14.60;;;6.90;;
35990;SDS011;22064;42.672;23.282;2023-06-10T02:02:49;13.90;;;7.10;;
35990;SDS011;22064;42.672;23.282;2023-06-10T02:05:15;14.82;;;7.13;;
35990;SDS011;22064;42.672;23.282;2023-06-10T02:07:41;14.63;;;7.45;;
35990;SDS011;22064;42.672;23.282;2023-06-10T02:10:07;10.88;;;6.35;;
35990;SDS011;22064;42.672;23.282;2023-06-10T02:12:34;13.00;;;6.90;;
35990;SDS011;22064;42.672;23.282;2023-06-10T02:15:00;12.18;;;6.30;;
35990;SDS011;22064;42.672;23.282;2023-06-10T02:17:25;13.25;;;6.60;;
35990;SDS011;22064;42.672;23.282;2023-06-10T02:19:52;13.02;;;6.45;;
35990;SDS011;22064;42.672;23.282;2023-06-10T02:22:22;13.63;;;7.00;;
35990;SDS011;22064;42.672;23.282;2023-06-10T02:24:49;12.98;;;6.88;;
35990;SDS011;22064;42.672;23.282;2023-06-10T02:27:15;12.93;;;6.70;;
35990;SDS011;22064;42.672;23.282;2023-06-10T02:29:41;12.13;;;6.38;;
35990;SDS011;22064;42.672;23.282;2023-06-10T02:32:09;10.45;;;5.70;;
35990;SDS011;22064;42.672;23.282;2023-06-10T02:34:36;10.38;;;6.40;;
35990;SDS011;22064;42.672;23.282;2023-06-10T02:37:06;11.52;;;6.60;;
35990;SDS011;22064;42.672;23.282;2023-06-10T02:39:32;14.57;;;7.10;;
35990;SDS011;22064;42.672;23.282;2023-06-10T02:41:58;12.82;;;7.00;;
35990;SDS011;22064;42.672;23.282;2023-06-10T02:44:24;14.77;;;6.68;;
35990;SDS011;22064;42.672;23.282;2023-06-10T02:46:50;11.77;;;6.55;;
35990;SDS011;22064;42.672;23.282;2023-06-10T02:49:16;13.57;;;6.47;;
35990;SDS011;22064;42.672;23.282;2023-06-10T02:51:44;13.80;;;6.55;;
35990;SDS011;22064;42.672;23.282;2023-06-10T02:54:11;13.15;;;6.88;;
35990;SDS011;22064;42.672;23.282;2023-06-10T02:56:37;12.02;;;6.28;;
35990;SDS011;22064;42.672;23.282;2023-06-10T02:59:11;12.43;;;6.68;;
35990;SDS011;22064;42.672;23.282;2023-06-10T03:01:37;12.55;;;6.70;;
35990;SDS011;22064;42.672;23.282;2023-06-10T03:04:07;13.43;;;6.30;;
35990;SDS011;22064;42.672;23.282;2023-06-10T03:06:34;14.68;;;7.40;;
35990;SDS011;22064;42.672;23.282;2023-06-10T03:09:11;10.60;;;6.28;;
35990;SDS011;22064;42.672;23.282;2023-06-10T03:11:39;12.77;;;6.90;;
35990;SDS011;22064;42.672;23.282;2023-06-10T03:14:06;13.80;;;6.95;;
35990;SDS011;22064;42.672;23.282;2023-06-10T03:16:32;15.57;;;7.65;;
35990;SDS011;22064;42.672;23.282;2023-06-10T03:18:59;12.75;;;7.05;;
35990;SDS011;22064;42.672;23.282;2023-06-10T03:21:25;17.98;;;7.95;;
35990;SDS011;22064;42.672;23.282;2023-06-10T03:23:54;14.32;;;7.97;;
35990;SDS011;22064;42.672;23.282;2023-06-10T03:26:21;11.98;;;7.03;;
35990;SDS011;22064;42.672;23.282;2023-06-10T03:28:47;14.35;;;7.60;;
35990;SDS011;22064;42.672;23.282;2023-06-10T03:31:14;16.17;;;8.13;;
35990;SDS011;22064;42.672;23.282;2023-06-10T03:33:42;20.48;;;9.60;;
35990;SDS011;22064;42.672;23.282;2023-06-10T03:36:08;18.88;;;10.30;;
35990;SDS011;22064;42.672;23.282;2023-06-10T03:38:35;20.67;;;10.13;;
35990;SDS011;22064;42.672;23.282;2023-06-10T03:41:03;20.67;;;11.73;;
35990;SDS011;22064;42.672;23.282;2023-06-10T03:43:29;23.20;;;12.50;;
35990;SDS011;22064;42.672;23.282;2023-06-10T03:45:57;26.02;;;14.00;;
35990;SDS011;22064;42.672;23.282;2023-06-10T03:48:23;22.88;;;12.48;;
35990;SDS011;22064;42.672;23.282;2023-06-10T03:50:51;25.15;;;10.77;;
35990;SDS011;22064;42.672;23.282;2023-06-10T03:53:19;20.02;;;10.70;;
35990;SDS011;22064;42.672;23.282;2023-06-10T03:55:45;20.20;;;11.05;;
35990;SDS011;22064;42.672;23.282;2023-06-10T03:58:13;20.50;;;11.00;;
35990;SDS011;22064;42.672;23.282;2023-06-10T04:00:41;22.50;;;11.23;;
35990;SDS011;22064;42.672;23.282;2023-06-10T04:03:08;17.92;;;9.85;;
35990;SDS011;22064;42.672;23.282;2023-06-10T04:05:39;19.10;;;9.70;;
35990;SDS011;22064;42.672;23.282;2023-06-10T04:08:07;18.75;;;9.77;;
35990;SDS011;22064;42.672;23.282;2023-06-10T04:10:33;19.05;;;8.55;;
35990;SDS011;22064;42.672;23.282;2023-06-10T04:13:00;16.98;;;8.63;;
35990;SDS011;22064;42.672;23.282;2023-06-10T04:15:30;20.27;;;9.93;;
35990;SDS011;22064;42.672;23.282;2023-06-10T04:18:00;17.25;;;9.18;;
35990;SDS011;22064;42.672;23.282;2023-06-10T04:20:27;21.58;;;9.15;;
35990;SDS011;22064;42.672;23.282;2023-06-10T04:22:53;17.80;;;10.15;;
35990;SDS011;22064;42.672;23.282;2023-06-10T04:25:19;17.00;;;9.35;;
35990;SDS011;22064;42.672;23.282;2023-06-10T04:27:48;20.08;;;10.23;;
35990;SDS011;22064;42.672;23.282;2023-06-10T04:30:14;19.90;;;9.73;;
35990;SDS011;22064;42.672;23.282;2023-06-10T04:32:41;19.30;;;10.75;;
35990;SDS011;22064;42.672;23.282;2023-06-10T04:35:12;19.88;;;10.88;;
35990;SDS011;22064;42.672;23.282;2023-06-10T04:37:40;22.48;;;13.18;;
35990;SDS011;22064;42.672;23.282;2023-06-10T04:40:07;16.00;;;9.20;;
35990;SDS011;22064;42.672;23.282;2023-06-10T04:42:34;19.95;;;9.93;;
35990;SDS011;22064;42.672;23.282;2023-06-10T04:45:00;21.42;;;10.43;;
35990;SDS011;22064;42.672;23.282;2023-06-10T04:47:27;19.58;;;9.73;;
35990;SDS011;22064;42.672;23.282;2023-06-10T04:49:54;19.70;;;10.32;;
35990;SDS011;22064;42.672;23.282;2023-06-10T04:52:20;19.70;;;9.95;;
35990;SDS011;22064;42.672;23.282;2023-06-10T04:54:46;21.38;;;11.38;;
35990;SDS011;22064;42.672;23.282;2023-06-10T04:57:13;23.50;;;11.52;;
35990;SDS011;22064;42.672;23.282;2023-06-10T04:59:39;20.88;;;10.60;;
35990;SDS011;22064;42.672;23.282;2023-06-10T05:02:05;20.05;;;10.80;;
35990;SDS011;22064;42.672;23.282;2023-06-10T05:04:31;19.63;;;10.68;;
35990;SDS011;22064;42.672;23.282;2023-06-10T05:06:57;22.60;;;11.18;;
35990;SDS011;22064;42.672;23.282;2023-06-10T05:09:23;23.75;;;12.13;;
35990;SDS011;22064;42.672;23.282;2023-06-10T05:11:49;23.05;;;11.45;;
35990;SDS011;22064;42.672;23.282;2023-06-10T05:14:15;22.52;;;10.88;;
35990;SDS011;22064;42.672;23.282;2023-06-10T05:16:42;20.20;;;11.18;;
35990;SDS011;22064;42.672;23.282;2023-06-10T05:19:09;22.20;;;11.57;;
35990;SDS011;22064;42.672;23.282;2023-06-10T05:21:35;22.33;;;11.25;;
35990;SDS011;22064;42.672;23.282;2023-06-10T05:24:01;21.25;;;11.38;;
35990;SDS011;22064;42.672;23.282;2023-06-10T05:26:27;20.05;;;11.23;;
35990;SDS011;22064;42.672;23.282;2023-06-10T05:28:54;20.38;;;11.30;;
35990;SDS011;22064;42.672;23.282;2023-06-10T05:31:20;19.33;;;11.00;;
35990;SDS011;22064;42.672;23.282;2023-06-10T05:33:46;20.45;;;10.55;;
35990;SDS011;22064;42.672;23.282;2023-06-10T05:36:12;21.63;;;11.00;;
35990;SDS011;22064;42.672;23.282;2023-06-10T05:38:38;22.05;;;10.27;;
35990;SDS011;22064;42.672;23.282;2023-06-10T05:41:03;18.90;;;9.55;;
35990;SDS011;22064;42.672;23.282;2023-06-10T05:43:29;15.48;;;9.07;;
35990;SDS011;22064;42.672;23.282;2023-06-10T05:45:55;18.60;;;9.25;;
35990;SDS011;22064;42.672;23.282;2023-06-10T05:48:21;18.48;;;8.65;;
35990;SDS011;22064;42.672;23.282;2023-06-10T05:50:47;16.42;;;8.15;;
35990;SDS011;22064;42.672;23.282;2023-06-10T05:53:16;11.77;;;5.80;;
35990;SDS011;22064;42.672;23.282;2023-06-10T05:55:45;16.48;;;7.60;;
35990;SDS011;22064;42.672;23.282;2023-06-10T05:58:12;14.75;;;6.32;;
35990;SDS011;22064;42.672;23.282;2023-06-10T06:00:39;12.48;;;7.50;;
35990;SDS011;22064;42.672;23.282;2023-06-10T06:03:06;10.98;;;6.50;;
35990;SDS011;22064;42.672;23.282;2023-06-10T06:05:34;12.43;;;7.10;;
35990;SDS011;22064;42.672;23.282;2023-06-10T06:08:04;13.40;;;7.00;;
35990;SDS011;22064;42.672;23.282;2023-06-10T06:10:30;12.98;;;6.78;;
35990;SDS011;22064;42.672;23.282;2023-06-10T06:12:57;15.25;;;6.85;;
35990;SDS011;22064;42.672;23.282;2023-06-10T06:15:23;13.18;;;7.47;;
35990;SDS011;22064;42.672;23.282;2023-06-10T06:17:49;15.68;;;7.43;;
35990;SDS011;22064;42.672;23.282;2023-06-10T06:20:18;10.48;;;6.55;;
35990;SDS011;22064;42.672;23.282;2023-06-10T06:22:45;12.65;;;6.78;;
35990;SDS011;22064;42.672;23.282;2023-06-10T06:25:11;12.77;;;6.80;;
35990;SDS011;22064;42.672;23.282;2023-06-10T06:27:37;14.75;;;7.47;;
35990;SDS011;22064;42.672;23.282;2023-06-10T06:30:04;14.27;;;7.43;;
35990;SDS011;22064;42.672;23.282;2023-06-10T06:32:30;14.07;;;7.80;;
35990;SDS011;22064;42.672;23.282;2023-06-10T06:34:57;13.15;;;6.85;;
35990;SDS011;22064;42.672;23.282;2023-06-10T06:37:24;12.82;;;6.43;;
35990;SDS011;22064;42.672;23.282;2023-06-10T06:39:58;14.70;;;7.30;;
35990;SDS011;22064;42.672;23.282;2023-06-10T06:42:25;12.38;;;6.45;;
35990;SDS011;22064;42.672;23.282;2023-06-10T06:45:07;9.88;;;5.55;;
35990;SDS011;22064;42.672;23.282;2023-06-10T06:47:34;9.48;;;5.40;;
35990;SDS011;22064;42.672;23.282;2023-06-10T06:50:00;9.13;;;5.30;;
35990;SDS011;22064;42.672;23.282;2023-06-10T06:52:26;13.88;;;6.15;;
35990;SDS011;22064;42.672;23.282;2023-06-10T06:54:51;11.55;;;5.97;;
35990;SDS011;22064;42.672;23.282;2023-06-10T06:57:17;7.72;;;4.90;;
35990;SDS011;22064;42.672;23.282;2023-06-10T06:59:43;11.88;;;5.63;;
35990;SDS011;22064;42.672;23.282;2023-06-10T07:02:10;10.82;;;5.53;;
35990;SDS011;22064;42.672;23.282;2023-06-10T07:04:36;11.65;;;5.95;;
35990;SDS011;22064;42.672;23.282;2023-06-10T07:07:02;11.82;;;5.57;;
35990;SDS011;22064;42.672;23.282;2023-06-10T07:09:28;9.95;;;5.82;;
35990;SDS011;22064;42.672;23.282;2023-06-10T07:11:54;10.43;;;5.47;;
35990;SDS011;22064;42.672;23.282;2023-06-10T07:14:20;10.50;;;4.68;;
35990;SDS011;22064;42.672;23.282;2023-06-10T07:16:46;11.43;;;5.38;;
35990;SDS011;22064;42.672;23.282;2023-06-10T07:19:13;10.68;;;5.40;;
35990;SDS011;22064;42.672;23.282;2023-06-10T07:21:39;9.32;;;5.10;;
35990;SDS011;22064;42.672;23.282;2023-06-10T07:24:05;9.48;;;5.10;;
35990;SDS011;22064;42.672;23.282;2023-06-10T07:26:31;9.00;;;4.80;;
35990;SDS011;22064;42.672;23.282;2023-06-10T07:28:57;8.73;;;4.72;;
35990;SDS011;22064;42.672;23.282;2023-06-10T07:31:23;6.85;;;4.05;;
35990;SDS011;22064;42.672;23.282;2023-06-10T07:33:50;17.85;;;5.18;;
35990;SDS011;22064;42.672;23.282;2023-06-10T07:36:16;8.43;;;4.97;;
35990;SDS011;22064;42.672;23.282;2023-06-10T07:38:42;9.55;;;4.90;;
35990;SDS011;22064;42.672;23.282;2023-06-10T07:41:08;9.60;;;4.80;;
35990;SDS011;22064;42.672;23.282;2023-06-10T07:43:34;9.18;;;4.35;;
35990;SDS011;22064;42.672;23.282;2023-06-10T07:46:01;9.00;;;4.60;;
35990;SDS011;22064;42.672;23.282;2023-06-10T07:48:26;7.47;;;4.40;;
35990;SDS011;22064;42.672;23.282;2023-06-10T07:50:52;9.50;;;5.00;;
35990;SDS011;22064;42.672;23.282;2023-06-10T07:53:18;9.65;;;5.15;;
35990;SDS011;22064;42.672;23.282;2023-06-10T07:55:44;9.60;;;5.70;;
35990;SDS011;22064;42.672;23.282;2023-06-10T07:58:10;7.85;;;4.95;;
35990;SDS011;22064;42.672;23.282;2023-06-10T08:00:36;13.43;;;5.20;;
35990;SDS011;22064;42.672;23.282;2023-06-10T08:03:02;9.55;;;5.38;;
35990;SDS011;22064;42.672;23.282;2023-06-10T08:05:28;9.13;;;4.65;;
35990;SDS011;22064;42.672;23.282;2023-06-10T08:07:55;9.82;;;4.30;;
35990;SDS011;22064;42.672;23.282;2023-06-10T08:10:21;7.80;;;4.78;;
35990;SDS011;22064;42.672;23.282;2023-06-10T08:12:47;6.28;;;3.92;;
35990;SDS011;22064;42.672;23.282;2023-06-10T08:15:13;8.25;;;4.15;;
35990;SDS011;22064;42.672;23.282;2023-06-10T08:17:39;5.10;;;3.75;;
35990;SDS011;22064;42.672;23.282;2023-06-10T08:20:06;9.57;;;4.28;;
35990;SDS011;22064;42.672;23.282;2023-06-10T08:22:32;6.45;;;4.38;;
35990;SDS011;22064;42.672;23.282;2023-06-10T08:24:58;8.35;;;4.18;;
35990;SDS011;22064;42.672;23.282;2023-06-10T08:27:24;6.60;;;3.97;;
35990;SDS011;22064;42.672;23.282;2023-06-10T08:29:50;7.18;;;4.13;;
35990;SDS011;22064;42.672;23.282;2023-06-10T08:32:16;6.72;;;4.20;;
35990;SDS011;22064;42.672;23.282;2023-06-10T08:34:42;7.25;;;4.53;;
35990;SDS011;22064;42.672;23.282;2023-06-10T08:37:08;8.25;;;4.68;;
35990;SDS011;22064;42.672;23.282;2023-06-10T08:39:34;8.45;;;4.47;;
35990;SDS011;22064;42.672;23.282;2023-06-10T08:44:27;7.72;;;4.57;;
35990;SDS011;22064;42.672;23.282;2023-06-10T08:47:01;11.27;;;5.10;;
35990;SDS011;22064;42.672;23.282;2023-06-10T08:49:38;6.70;;;4.60;;
35990;SDS011;22064;42.672;23.282;2023-06-10T08:52:09;8.07;;;4.30;;
35990;SDS011;22064;42.672;23.282;2023-06-10T08:54:40;6.18;;;4.07;;
35990;SDS011;22064;42.672;23.282;2023-06-10T08:57:11;9.02;;;4.20;;
35990;SDS011;22064;42.672;23.282;2023-06-10T08:59:38;7.75;;;3.92;;
35990;SDS011;22064;42.672;23.282;2023-06-10T09:02:05;7.03;;;3.85;;
35990;SDS011;22064;42.672;23.282;2023-06-10T09:04:32;8.07;;;4.63;;
35990;SDS011;22064;42.672;23.282;2023-06-10T09:06:59;8.40;;;4.47;;
35990;SDS011;22064;42.672;23.282;2023-06-10T09:09:26;8.07;;;4.28;;
35990;SDS011;22064;42.672;23.282;2023-06-10T09:11:56;7.65;;;4.68;;
35990;SDS011;22064;42.672;23.282;2023-06-10T09:14:22;9.40;;;4.85;;
35990;SDS011;22064;42.672;23.282;2023-06-10T09:16:49;7.82;;;4.38;;
35990;SDS011;22064;42.672;23.282;2023-06-10T09:19:16;9.70;;;4.95;;
35990;SDS011;22064;42.672;23.282;2023-06-10T09:21:42;6.43;;;4.25;;
35990;SDS011;22064;42.672;23.282;2023-06-10T09:24:08;7.72;;;4.28;;
35990;SDS011;22064;42.672;23.282;2023-06-10T09:26:34;8.00;;;3.90;;
35990;SDS011;22064;42.672;23.282;2023-06-10T09:29:04;8.65;;;4.22;;
35990;SDS011;22064;42.672;23.282;2023-06-10T09:31:32;6.38;;;4.15;;
35990;SDS011;22064;42.672;23.282;2023-06-10T09:34:13;5.80;;;4.15;;
35990;SDS011;22064;42.672;23.282;2023-06-10T09:36:42;6.97;;;3.85;;
35990;SDS011;22064;42.672;23.282;2023-06-10T09:39:15;7.55;;;4.15;;
35990;SDS011;22064;42.672;23.282;2023-06-10T09:41:42;9.25;;;4.05;;
35990;SDS011;22064;42.672;23.282;2023-06-10T09:44:12;7.85;;;4.05;;
35990;SDS011;22064;42.672;23.282;2023-06-10T09:46:40;6.75;;;4.30;;
35990;SDS011;22064;42.672;23.282;2023-06-10T09:49:06;7.28;;;4.30;;
35990;SDS011;22064;42.672;23.282;2023-06-10T09:51:33;6.53;;;3.88;;
35990;SDS011;22064;42.672;23.282;2023-06-10T09:53:59;9.23;;;3.90;;
35990;SDS011;22064;42.672;23.282;2023-06-10T09:56:34;8.10;;;3.50;;
35990;SDS011;22064;42.672;23.282;2023-06-10T09:59:06;5.53;;;3.72;;
35990;SDS011;22064;42.672;23.282;2023-06-10T10:01:32;4.85;;;3.72;;
35990;SDS011;22064;42.672;23.282;2023-06-10T10:03:59;6.43;;;4.13;;
35990;SDS011;22064;42.672;23.282;2023-06-10T10:06:26;7.85;;;4.20;;
35990;SDS011;22064;42.672;23.282;2023-06-10T10:08:53;7.05;;;3.92;;
35990;SDS011;22064;42.672;23.282;2023-06-10T10:11:19;4.75;;;3.40;;
35990;SDS011;22064;42.672;23.282;2023-06-10T10:13:48;9.83;;;4.50;;
35990;SDS011;22064;42.672;23.282;2023-06-10T10:16:16;5.85;;;3.97;;
35990;SDS011;22064;42.672;23.282;2023-06-10T10:18:53;13.60;;;4.95;;
35990;SDS011;22064;42.672;23.282;2023-06-10T10:21:24;7.88;;;4.57;;
35990;SDS011;22064;42.672;23.282;2023-06-10T10:24:01;5.88;;;3.80;;
35990;SDS011;22064;42.672;23.282;2023-06-10T10:26:33;7.00;;;4.00;;
35990;SDS011;22064;42.672;23.282;2023-06-10T10:29:10;3.88;;;3.45;;
35990;SDS011;22064;42.672;23.282;2023-06-10T10:31:42;6.07;;;3.80;;
35990;SDS011;22064;42.672;23.282;2023-06-10T10:34:19;6.63;;;3.78;;
35990;SDS011;22064;42.672;23.282;2023-06-10T10:36:51;6.90;;;3.65;;
35990;SDS011;22064;42.672;23.282;2023-06-10T10:39:17;5.05;;;3.58;;
35990;SDS011;22064;42.672;23.282;2023-06-10T10:41:44;4.65;;;3.22;;
35990;SDS011;22064;42.672;23.282;2023-06-10T10:44:12;6.78;;;3.50;;
35990;SDS011;22064;42.672;23.282;2023-06-10T10:46:48;5.90;;;3.40;;
35990;SDS011;22064;42.672;23.282;2023-06-10T10:49:15;6.78;;;3.38;;
35990;SDS011;22064;42.672;23.282;2023-06-10T10:51:57;7.72;;;3.75;;
35990;SDS011;22064;42.672;23.282;2023-06-10T10:54:43;5.53;;;3.35;;
35990;SDS011;22064;42.672;23.282;2023-06-10T10:57:12;6.10;;;3.45;;
35990;SDS011;22064;42.672;23.282;2023-06-10T11:05:12;5.82;;;3.72;;
35990;SDS011;22064;42.672;23.282;2023-06-10T11:07:39;5.43;;;3.55;;
35990;SDS011;22064;42.672;23.282;2023-06-10T11:10:09;7.68;;;3.83;;
35990;SDS011;22064;42.672;23.282;2023-06-10T11:15:11;4.28;;;3.33;;
35990;SDS011;22064;42.672;23.282;2023-06-10T11:18:05;6.00;;;3.78;;
35990;SDS011;22064;42.672;23.282;2023-06-10T11:20:45;5.18;;;3.88;;
35990;SDS011;22064;42.672;23.282;2023-06-10T11:23:38;5.38;;;3.60;;
35990;SDS011;22064;42.672;23.282;2023-06-10T11:28:36;6.13;;;3.80;;
35990;SDS011;22064;42.672;23.282;2023-06-10T11:31:02;4.38;;;2.97;;
35990;SDS011;22064;42.672;23.282;2023-06-10T11:33:29;4.82;;;3.25;;
35990;SDS011;22064;42.672;23.282;2023-06-10T11:35:55;6.93;;;3.67;;
35990;SDS011;22064;42.672;23.282;2023-06-10T11:38:21;4.88;;;3.70;;
35990;SDS011;22064;42.672;23.282;2023-06-10T11:40:48;4.57;;;3.50;;
35990;SDS011;22064;42.672;23.282;2023-06-10T11:43:18;6.13;;;3.17;;
35990;SDS011;22064;42.672;23.282;2023-06-10T11:45:44;6.97;;;3.80;;
35990;SDS011;22064;42.672;23.282;2023-06-10T11:48:12;8.70;;;4.05;;
35990;SDS011;22064;42.672;23.282;2023-06-10T11:50:38;8.85;;;3.80;;
35990;SDS011;22064;42.672;23.282;2023-06-10T11:53:04;6.45;;;4.10;;
35990;SDS011;22064;42.672;23.282;2023-06-10T11:55:47;5.75;;;3.67;;
35990;SDS011;22064;42.672;23.282;2023-06-10T11:58:16;5.47;;;3.67;;
35990;SDS011;22064;42.672;23.282;2023-06-10T12:00:44;6.03;;;3.75;;
35990;SDS011;22064;42.672;23.282;2023-06-10T12:03:20;8.20;;;4.25;;
35990;SDS011;22064;42.672;23.282;2023-06-10T12:06:00;8.52;;;4.70;;
35990;SDS011;22064;42.672;23.282;2023-06-10T12:08:29;6.80;;;3.92;;
35990;SDS011;22064;42.672;23.282;2023-06-10T12:10:56;8.43;;;3.92;;
35990;SDS011;22064;42.672;23.282;2023-06-10T12:13:23;6.35;;;3.88;;
35990;SDS011;22064;42.672;23.282;2023-06-10T12:15:53;7.07;;;4.60;;
35990;SDS011;22064;42.672;23.282;2023-06-10T12:18:22;6.95;;;4.22;;
35990;SDS011;22064;42.672;23.282;2023-06-10T12:20:49;6.07;;;4.10;;
35990;SDS011;22064;42.672;23.282;2023-06-10T12:23:17;7.68;;;4.50;;
35990;SDS011;22064;42.672;23.282;2023-06-10T12:25:55;7.55;;;4.20;;
35990;SDS011;22064;42.672;23.282;2023-06-10T12:28:21;6.10;;;3.97;;
35990;SDS011;22064;42.672;23.282;2023-06-10T12:30:48;7.85;;;4.22;;
35990;SDS011;22064;42.672;23.282;2023-06-10T12:33:21;6.80;;;3.70;;
35990;SDS011;22064;42.672;23.282;2023-06-10T12:35:47;5.60;;;3.80;;
35990;SDS011;22064;42.672;23.282;2023-06-10T12:38:15;5.35;;;3.70;;
35990;SDS011;22064;42.672;23.282;2023-06-10T12:40:47;7.22;;;4.10;;
35990;SDS011;22064;42.672;23.282;2023-06-10T12:43:13;5.88;;;3.90;;
35990;SDS011;22064;42.672;23.282;2023-06-10T12:45:48;5.32;;;3.83;;
35990;SDS011;22064;42.672;23.282;2023-06-10T12:48:22;7.07;;;4.00;;
35990;SDS011;22064;42.672;23.282;2023-06-10T12:50:55;5.60;;;3.88;;
35990;SDS011;22064;42.672;23.282;2023-06-10T12:53:24;6.93;;;3.47;;
35990;SDS011;22064;42.672;23.282;2023-06-10T12:55:53;6.53;;;3.72;;
35990;SDS011;22064;42.672;23.282;2023-06-10T12:58:20;6.05;;;3.70;;
35990;SDS011;22064;42.672;23.282;2023-06-10T13:00:47;7.07;;;3.63;;
35990;SDS011;22064;42.672;23.282;2023-06-10T13:03:14;5.78;;;3.72;;
35990;SDS011;22064;42.672;23.282;2023-06-10T13:05:40;7.43;;;3.80;;
35990;SDS011;22064;42.672;23.282;2023-06-10T13:08:07;5.25;;;3.58;;
35990;SDS011;22064;42.672;23.282;2023-06-10T13:10:35;6.05;;;3.53;;
35990;SDS011;22064;42.672;23.282;2023-06-10T13:13:02;5.95;;;3.17;;
35990;SDS011;22064;42.672;23.282;2023-06-10T13:18:03;6.20;;;3.70;;
35990;SDS011;22064;42.672;23.282;2023-06-10T13:20:30;7.22;;;4.15;;
35990;SDS011;22064;42.672;23.282;2023-06-10T13:22:56;7.10;;;4.20;;
35990;SDS011;22064;42.672;23.282;2023-06-10T13:25:22;7.03;;;4.30;;
35990;SDS011;22064;42.672;23.282;2023-06-10T13:27:48;8.25;;;4.53;;
35990;SDS011;22064;42.672;23.282;2023-06-10T13:30:14;11.52;;;4.15;;
35990;SDS011;22064;42.672;23.282;2023-06-10T13:32:40;10.57;;;4.95;;
35990;SDS011;22064;42.672;23.282;2023-06-10T13:35:06;8.63;;;4.45;;
35990;SDS011;22064;42.672;23.282;2023-06-10T13:37:33;9.98;;;4.53;;
35990;SDS011;22064;42.672;23.282;2023-06-10T13:39:59;9.38;;;4.18;;
35990;SDS011;22064;42.672;23.282;2023-06-10T13:42:26;7.68;;;4.90;;
35990;SDS011;22064;42.672;23.282;2023-06-10T13:44:52;9.90;;;4.45;;
35990;SDS011;22064;42.672;23.282;2023-06-10T13:47:17;7.90;;;4.07;;
35990;SDS011;22064;42.672;23.282;2023-06-10T13:49:43;9.52;;;4.32;;
35990;SDS011;22064;42.672;23.282;2023-06-10T13:52:09;8.40;;;4.72;;
35990;SDS011;22064;42.672;23.282;2023-06-10T13:54:35;8.88;;;4.25;;
35990;SDS011;22064;42.672;23.282;2023-06-10T13:57:01;11.88;;;4.80;;
35990;SDS011;22064;42.672;23.282;2023-06-10T13:59:28;9.88;;;4.57;;
35990;SDS011;22064;42.672;23.282;2023-06-10T14:01:53;10.00;;;5.07;;
35990;SDS011;22064;42.672;23.282;2023-06-10T14:04:19;7.93;;;4.28;;
35990;SDS011;22064;42.672;23.282;2023-06-10T14:06:45;9.98;;;4.90;;
35990;SDS011;22064;42.672;23.282;2023-06-10T14:09:14;7.50;;;4.70;;
35990;SDS011;22064;42.672;23.282;2023-06-10T14:11:42;6.60;;;4.20;;
35990;SDS011;22064;42.672;23.282;2023-06-10T14:14:08;8.23;;;4.18;;
35990;SDS011;22064;42.672;23.282;2023-06-10T14:16:34;10.40;;;4.30;;
35990;SDS011;22064;42.672;23.282;2023-06-10T14:19:00;8.95;;;4.07;;
35990;SDS011;22064;42.672;23.282;2023-06-10T14:21:26;7.57;;;4.13;;
35990;SDS011;22064;42.672;23.282;2023-06-10T14:23:52;8.15;;;4.35;;
35990;SDS011;22064;42.672;23.282;2023-06-10T14:26:19;10.70;;;4.00;;
35990;SDS011;22064;42.672;23.282;2023-06-10T14:28:47;5.35;;;3.60;;
35990;SDS011;22064;42.672;23.282;2023-06-10T14:31:15;8.15;;;3.97;;
35990;SDS011;22064;42.672;23.282;2023-06-10T14:33:41;11.23;;;6.07;;
35990;SDS011;22064;42.672;23.282;2023-06-10T14:36:09;9.40;;;4.82;;
35990;SDS011;22064;42.672;23.282;2023-06-10T14:38:36;7.43;;;4.13;;
35990;SDS011;22064;42.672;23.282;2023-06-10T14:41:02;5.05;;;3.72;;
35990;SDS011;22064;42.672;23.282;2023-06-10T14:43:28;6.50;;;4.10;;
35990;SDS011;22064;42.672;23.282;2023-06-10T14:45:53;8.90;;;3.90;;
35990;SDS011;22064;42.672;23.282;2023-06-10T14:48:21;6.00;;;3.92;;
35990;SDS011;22064;42.672;23.282;2023-06-10T14:50:47;7.13;;;3.90;;